ADDS TAF Board (Experimental) INFO Settings
IDs: Format: Expanded Condensed

KSFO - San Francisco Intl, CA, US

Issued at 0332 UTC 27 May 2015
Updated at: 0341 UTC 27 May 2015
Time0256Z 27/04Z 27/05Z 27/06Z 27/07Z 27/08Z 27/09Z 27/10Z 27/11Z 27/12Z 27/13Z 27/14Z 27/15Z 27/16Z
Type OBS PRVL PRVL PRVL PRVL PRVL PRVL PRVL PRVL PRVL PRVL PRVL PRVL PRVL
VIS 10 >6 >6 >6 >6 >6 >6 >6 >6 >6 >6 >6 >6 >6
CIG 17 12 12 12 12 12 12 12 12 12 12 12 12 12
Cover BKN BKN BKN OVC OVC OVC OVC OVC OVC OVC OVC OVC OVC OVC
FltCat MVFR MVFR MVFR MVFR MVFR MVFR MVFR MVFR MVFR MVFR MVFR MVFR MVFR MVFR
WX -- -- -- -- -- -- -- -- -- -- -- -- -- --
WDir 230 240 240 260 260 260 260 260 260 260 260 260 260 260
WSpd 12 12 12 7 7 7 7 7 7 7 7 7 7 7
WGst -- -- -- -- -- -- -- -- -- -- -- -- -- --
R01/19
XWnd 5 7 7 6 6 6 6 6 6 6 6 6 6 6
HWnd -11 -10 -10 -4 -4 -4 -4 -4 -4 -4 -4 -4 -4 -4
R10/28
XWnd -11 -10 -10 -4 -4 -4 -4 -4 -4 -4 -4 -4 -4 -4
HWnd -5 -7 -7 -6 -6 -6 -6 -6 -6 -6 -6 -6 -6 -6

NOTE: TEMPO conditions in [brackets]. Keep in mind TEMPO conditions might be better (lower impact) than prevailing conditions.

Raw TAF
KSFO 270332Z 2704/2806 24012KT P6SM BKN012 BKN015
  FM270600 26007KT P6SM OVC012
  FM272000 29012KT P6SM FEW012 BKN024
  FM280300 29009KT P6SM SCT010 BKN020


Raw METAR
KSFO 270256Z 23012KT 10SM FEW011 BKN017 BKN019 14/09 A2999 RMK AO2 SLP154 T01440094 58002
KSFO 270156Z 24013KT 10SM FEW012 BKN018 15/09 A2999 RMK AO2 SLP156 T01500094
KSFO 270113Z 24013G20KT 10SM FEW012 BKN018 16/09 A2999 RMK AO2
KSFO 270056Z 24016G21KT 10SM FEW015 SCT018 17/09 A2999 RMK AO2 SLP155 T01670094

METAR Board
Radar Display
Forecast Discussion

TAF Board Legend

Potential Impact
Threat None Slight Moderate High
Visibility (sm) ≥5.1 5.1>X≥3 3>X≥1 <1
Ceiling (100 ft) ≥30.1 30.1>X≥10 10>X≥5 <5
Wind Speed (kt) <10 10≤X<20 20≤X<30 ≥30
Wind Gust (kt) <15 15≤X<25 25≤X<35 ≥35
Weather No Wx Reported VCTS,-TS,-FZRA,SN TS,FZRA +TS,+FZRA,+SN